createdAt,value
2023-05-25T00:06:17.268Z,100821.02
2023-05-25T00:21:10.601Z,100825.70
2023-05-25T00:36:01.480Z,100819.95
2023-05-25T00:50:52.806Z,100812.83
2023-05-25T01:05:46.063Z,100816.41
2023-05-25T01:20:37.541Z,100822.31
2023-05-25T01:35:29.288Z,100823.48
2023-05-25T01:50:23.570Z,100833.19
2023-05-25T02:05:18.178Z,100820.84
2023-05-25T02:35:05.283Z,100804.40
2023-05-25T02:49:56.521Z,100800.17
2023-05-25T03:04:49.538Z,100809.19
2023-05-25T03:19:41.797Z,100820.49
2023-05-25T03:34:33.113Z,100840.33
2023-05-25T03:49:25.239Z,100863.90
2023-05-25T04:04:17.382Z,100858.86
2023-05-25T04:19:09.897Z,100859.45
2023-05-25T04:34:02.420Z,100869.72
2023-05-25T04:48:53.330Z,100880.84
2023-05-25T05:03:46.015Z,100896.86
2023-05-25T05:18:39.691Z,100898.31
2023-05-25T05:33:31.512Z,100914.95
2023-05-25T05:48:25.997Z,100924.70
2023-05-25T06:03:17.537Z,100945.55
2023-05-25T06:18:10.881Z,100942.23
2023-05-25T06:33:03.433Z,100954.73
2023-05-25T06:47:55.963Z,100960.20
2023-05-25T07:02:48.904Z,100964.24
2023-05-25T07:17:45.951Z,100943.44
2023-05-25T07:32:40.571Z,100942.44
2023-05-25T07:47:34.280Z,100940.86
2023-05-25T08:02:26.462Z,100936.16
2023-05-25T08:17:19.819Z,100935.92
2023-05-25T08:32:12.275Z,100927.39
2023-05-25T08:47:06.469Z,100946.88
2023-05-25T09:01:59.314Z,100939.03
2023-05-25T09:16:51.175Z,100939.20
2023-05-25T09:31:45.735Z,100937.70
2023-05-25T09:46:38.361Z,100946.32
2023-05-25T10:01:32.057Z,100940.41
2023-05-25T10:16:30.024Z,100954.02
2023-05-25T10:31:22.387Z,100945.59
2023-05-25T10:46:14.911Z,100939.53
2023-05-25T11:01:07.574Z,100934.45
2023-05-25T11:16:19.284Z,100936.00
2023-05-25T11:31:22.048Z,100926.73
2023-05-25T12:01:19.373Z,100926.34
2023-05-25T12:16:16.656Z,100914.53
2023-05-25T12:31:20.248Z,100902.88
2023-05-25T12:46:16.480Z,100903.33
2023-05-25T13:01:09.599Z,100890.71
2023-05-25T13:30:57.750Z,100889.73
2023-05-25T13:45:53.349Z,100872.88
2023-05-25T14:01:18.551Z,100868.30
2023-05-25T14:16:11.840Z,100854.37
2023-05-25T14:31:08.214Z,100850.59
2023-05-25T15:00:59.831Z,100859.34
2023-05-25T15:15:56.965Z,100854.86
2023-05-25T15:46:08.743Z,100854.25
2023-05-25T16:01:15.880Z,100839.67
2023-05-25T16:16:08.431Z,100842.28
2023-05-25T16:30:53.772Z,100838.19
2023-05-25T16:45:41.029Z,100829.44
2023-05-25T17:30:14.701Z,100834.38
2023-05-25T18:00:06.730Z,100837.59
2023-05-25T18:29:50.137Z,100848.44
2023-05-25T20:14:14.483Z,100918.14
2023-05-25T20:29:05.406Z,100914.83
2023-05-25T20:43:57.103Z,100928.22
2023-05-25T20:58:53.740Z,100942.71
2023-05-25T21:13:42.780Z,100955.47
2023-05-25T21:28:34.854Z,100970.45
2023-05-25T21:43:26.793Z,100982.31
2023-05-25T21:58:18.904Z,100994.23
2023-05-25T22:13:10.456Z,101002.13
2023-05-25T22:28:13.658Z,101014.13
2023-05-25T22:43:05.127Z,101032.36
2023-05-25T22:57:56.821Z,101034.34
2023-05-25T23:12:48.545Z,101044.63
2023-05-25T23:27:40.482Z,101059.13
2023-05-25T23:42:31.386Z,101054.77
2023-05-25T23:57:23.478Z,101067.91
